sensor_id;sensor_type;location;lat;lon;timestamp;P1;durP1;ratioP1;P2;durP2;ratioP2
6821;SDS011;3449;48.728;8.968;2024-02-21T00:01:45;8.47;;;3.03;;
6821;SDS011;3449;48.728;8.968;2024-02-21T00:04:11;8.13;;;2.97;;
6821;SDS011;3449;48.728;8.968;2024-02-21T00:06:38;11.47;;;3.40;;
6821;SDS011;3449;48.728;8.968;2024-02-21T00:09:05;22.50;;;4.30;;
6821;SDS011;3449;48.728;8.968;2024-02-21T00:11:33;9.00;;;3.60;;
6821;SDS011;3449;48.728;8.968;2024-02-21T00:14:00;10.70;;;3.60;;
6821;SDS011;3449;48.728;8.968;2024-02-21T00:16:27;12.87;;;4.13;;
6821;SDS011;3449;48.728;8.968;2024-02-21T00:18:53;10.07;;;3.17;;
6821;SDS011;3449;48.728;8.968;2024-02-21T00:21:20;7.70;;;2.70;;
6821;SDS011;3449;48.728;8.968;2024-02-21T00:23:47;9.70;;;2.77;;
6821;SDS011;3449;48.728;8.968;2024-02-21T00:26:15;16.17;;;3.50;;
6821;SDS011;3449;48.728;8.968;2024-02-21T00:28:43;9.10;;;2.73;;
6821;SDS011;3449;48.728;8.968;2024-02-21T00:31:10;6.60;;;2.83;;
6821;SDS011;3449;48.728;8.968;2024-02-21T00:33:37;5.43;;;3.30;;
6821;SDS011;3449;48.728;8.968;2024-02-21T00:36:04;11.17;;;3.20;;
6821;SDS011;3449;48.728;8.968;2024-02-21T00:38:31;8.50;;;3.20;;
6821;SDS011;3449;48.728;8.968;2024-02-21T00:40:58;7.97;;;2.83;;
6821;SDS011;3449;48.728;8.968;2024-02-21T00:43:25;9.23;;;2.57;;
6821;SDS011;3449;48.728;8.968;2024-02-21T00:45:53;16.07;;;3.20;;
6821;SDS011;3449;48.728;8.968;2024-02-21T00:48:20;18.83;;;3.70;;
6821;SDS011;3449;48.728;8.968;2024-02-21T00:50:47;11.80;;;2.50;;
6821;SDS011;3449;48.728;8.968;2024-02-21T00:53:14;4.97;;;2.57;;
6821;SDS011;3449;48.728;8.968;2024-02-21T00:55:40;6.87;;;2.97;;
6821;SDS011;3449;48.728;8.968;2024-02-21T00:58:08;10.73;;;3.70;;
6821;SDS011;3449;48.728;8.968;2024-02-21T01:00:35;6.47;;;3.00;;
6821;SDS011;3449;48.728;8.968;2024-02-21T01:03:03;11.27;;;2.57;;
6821;SDS011;3449;48.728;8.968;2024-02-21T01:05:30;5.43;;;3.37;;
6821;SDS011;3449;48.728;8.968;2024-02-21T01:07:57;9.57;;;3.30;;
6821;SDS011;3449;48.728;8.968;2024-02-21T01:10:24;17.57;;;2.97;;
6821;SDS011;3449;48.728;8.968;2024-02-21T01:12:51;6.17;;;2.37;;
6821;SDS011;3449;48.728;8.968;2024-02-21T01:15:18;11.40;;;2.50;;
6821;SDS011;3449;48.728;8.968;2024-02-21T01:17:44;5.67;;;2.53;;
6821;SDS011;3449;48.728;8.968;2024-02-21T01:20:13;9.67;;;3.17;;
6821;SDS011;3449;48.728;8.968;2024-02-21T01:22:40;9.07;;;3.23;;
6821;SDS011;3449;48.728;8.968;2024-02-21T01:25:07;10.33;;;3.40;;
6821;SDS011;3449;48.728;8.968;2024-02-21T01:27:34;4.87;;;2.83;;
6821;SDS011;3449;48.728;8.968;2024-02-21T01:30:01;10.07;;;2.17;;
6821;SDS011;3449;48.728;8.968;2024-02-21T01:32:28;7.63;;;2.80;;
6821;SDS011;3449;48.728;8.968;2024-02-21T01:34:55;7.30;;;2.67;;
6821;SDS011;3449;48.728;8.968;2024-02-21T01:37:23;2.77;;;1.93;;
6821;SDS011;3449;48.728;8.968;2024-02-21T01:39:50;9.53;;;2.93;;
6821;SDS011;3449;48.728;8.968;2024-02-21T01:42:17;7.93;;;2.77;;
6821;SDS011;3449;48.728;8.968;2024-02-21T01:44:43;12.40;;;2.83;;
6821;SDS011;3449;48.728;8.968;2024-02-21T01:47:10;14.70;;;2.80;;
6821;SDS011;3449;48.728;8.968;2024-02-21T01:49:38;7.73;;;2.70;;
6821;SDS011;3449;48.728;8.968;2024-02-21T01:52:06;3.63;;;2.50;;
6821;SDS011;3449;48.728;8.968;2024-02-21T01:54:35;19.40;;;2.57;;
6821;SDS011;3449;48.728;8.968;2024-02-21T01:57:01;11.03;;;3.40;;
6821;SDS011;3449;48.728;8.968;2024-02-21T01:59:29;6.57;;;2.50;;
6821;SDS011;3449;48.728;8.968;2024-02-21T02:01:56;5.97;;;2.07;;
6821;SDS011;3449;48.728;8.968;2024-02-21T02:04:24;6.43;;;2.60;;
6821;SDS011;3449;48.728;8.968;2024-02-21T02:06:52;13.87;;;2.57;;
6821;SDS011;3449;48.728;8.968;2024-02-21T02:09:20;6.03;;;2.53;;
6821;SDS011;3449;48.728;8.968;2024-02-21T02:11:49;3.40;;;2.50;;
6821;SDS011;3449;48.728;8.968;2024-02-21T02:14:16;5.70;;;2.00;;
6821;SDS011;3449;48.728;8.968;2024-02-21T02:16:45;7.10;;;2.77;;
6821;SDS011;3449;48.728;8.968;2024-02-21T02:19:13;6.00;;;2.30;;
6821;SDS011;3449;48.728;8.968;2024-02-21T02:21:42;4.93;;;2.40;;
6821;SDS011;3449;48.728;8.968;2024-02-21T02:24:14;10.70;;;2.50;;
6821;SDS011;3449;48.728;8.968;2024-02-21T02:26:42;13.27;;;3.10;;
6821;SDS011;3449;48.728;8.968;2024-02-21T02:29:09;11.30;;;3.50;;
6821;SDS011;3449;48.728;8.968;2024-02-21T02:31:36;7.23;;;2.27;;
6821;SDS011;3449;48.728;8.968;2024-02-21T02:34:03;5.40;;;2.23;;
6821;SDS011;3449;48.728;8.968;2024-02-21T02:36:31;2.90;;;2.20;;
6821;SDS011;3449;48.728;8.968;2024-02-21T02:38:58;4.50;;;1.97;;
6821;SDS011;3449;48.728;8.968;2024-02-21T02:41:26;12.10;;;2.97;;
6821;SDS011;3449;48.728;8.968;2024-02-21T02:43:53;10.43;;;2.70;;
6821;SDS011;3449;48.728;8.968;2024-02-21T02:46:20;4.83;;;2.60;;
6821;SDS011;3449;48.728;8.968;2024-02-21T02:48:47;2.37;;;2.17;;
6821;SDS011;3449;48.728;8.968;2024-02-21T02:51:14;6.93;;;2.30;;
6821;SDS011;3449;48.728;8.968;2024-02-21T02:53:41;5.10;;;2.77;;
6821;SDS011;3449;48.728;8.968;2024-02-21T02:56:13;12.80;;;2.40;;
6821;SDS011;3449;48.728;8.968;2024-02-21T02:58:42;5.70;;;2.73;;
6821;SDS011;3449;48.728;8.968;2024-02-21T03:01:09;9.73;;;2.73;;
6821;SDS011;3449;48.728;8.968;2024-02-21T03:03:35;6.50;;;3.10;;
6821;SDS011;3449;48.728;8.968;2024-02-21T03:06:03;6.77;;;2.57;;
6821;SDS011;3449;48.728;8.968;2024-02-21T03:08:30;3.33;;;2.23;;
6821;SDS011;3449;48.728;8.968;2024-02-21T03:10:57;2.87;;;2.20;;
6821;SDS011;3449;48.728;8.968;2024-02-21T03:13:24;8.87;;;2.87;;
6821;SDS011;3449;48.728;8.968;2024-02-21T03:15:52;12.10;;;2.80;;
6821;SDS011;3449;48.728;8.968;2024-02-21T03:18:19;18.10;;;3.60;;
6821;SDS011;3449;48.728;8.968;2024-02-21T03:20:46;6.20;;;2.53;;
6821;SDS011;3449;48.728;8.968;2024-02-21T03:23:13;4.50;;;2.03;;
6821;SDS011;3449;48.728;8.968;2024-02-21T03:25:40;3.10;;;2.27;;
6821;SDS011;3449;48.728;8.968;2024-02-21T03:28:07;3.17;;;2.30;;
6821;SDS011;3449;48.728;8.968;2024-02-21T03:30:34;4.90;;;2.20;;
6821;SDS011;3449;48.728;8.968;2024-02-21T03:33:02;3.70;;;2.60;;
6821;SDS011;3449;48.728;8.968;2024-02-21T03:35:29;7.80;;;2.67;;
6821;SDS011;3449;48.728;8.968;2024-02-21T03:37:56;5.17;;;2.20;;
6821;SDS011;3449;48.728;8.968;2024-02-21T03:40:23;10.30;;;2.40;;
6821;SDS011;3449;48.728;8.968;2024-02-21T03:42:49;7.37;;;2.13;;
6821;SDS011;3449;48.728;8.968;2024-02-21T03:45:16;5.20;;;3.50;;
6821;SDS011;3449;48.728;8.968;2024-02-21T03:47:43;7.43;;;3.10;;
6821;SDS011;3449;48.728;8.968;2024-02-21T03:50:11;19.20;;;3.27;;
6821;SDS011;3449;48.728;8.968;2024-02-21T03:52:39;6.13;;;2.87;;
6821;SDS011;3449;48.728;8.968;2024-02-21T03:55:06;2.90;;;1.80;;
6821;SDS011;3449;48.728;8.968;2024-02-21T03:57:33;9.40;;;2.50;;
6821;SDS011;3449;48.728;8.968;2024-02-21T04:00:00;7.13;;;2.50;;
6821;SDS011;3449;48.728;8.968;2024-02-21T04:02:28;6.80;;;2.80;;
6821;SDS011;3449;48.728;8.968;2024-02-21T04:04:55;4.67;;;3.03;;
6821;SDS011;3449;48.728;8.968;2024-02-21T04:07:23;8.83;;;2.97;;
6821;SDS011;3449;48.728;8.968;2024-02-21T04:09:50;10.40;;;2.97;;
6821;SDS011;3449;48.728;8.968;2024-02-21T04:12:17;4.70;;;4.10;;
6821;SDS011;3449;48.728;8.968;2024-02-21T04:14:44;12.13;;;4.53;;
6821;SDS011;3449;48.728;8.968;2024-02-21T04:17:10;21.47;;;4.63;;
6821;SDS011;3449;48.728;8.968;2024-02-21T04:19:37;10.73;;;5.07;;
6821;SDS011;3449;48.728;8.968;2024-02-21T04:22:04;10.90;;;3.90;;
6821;SDS011;3449;48.728;8.968;2024-02-21T04:24:32;8.63;;;2.83;;
6821;SDS011;3449;48.728;8.968;2024-02-21T04:26:59;4.60;;;2.60;;
6821;SDS011;3449;48.728;8.968;2024-02-21T04:29:26;8.63;;;2.63;;
6821;SDS011;3449;48.728;8.968;2024-02-21T04:31:53;13.97;;;2.33;;
6821;SDS011;3449;48.728;8.968;2024-02-21T04:34:20;7.77;;;2.57;;
6821;SDS011;3449;48.728;8.968;2024-02-21T04:36:47;16.87;;;2.30;;
6821;SDS011;3449;48.728;8.968;2024-02-21T04:39:14;9.43;;;2.33;;
6821;SDS011;3449;48.728;8.968;2024-02-21T04:41:42;6.00;;;2.53;;
6821;SDS011;3449;48.728;8.968;2024-02-21T04:44:09;5.00;;;2.57;;
6821;SDS011;3449;48.728;8.968;2024-02-21T04:46:36;11.90;;;2.13;;
6821;SDS011;3449;48.728;8.968;2024-02-21T04:49:02;12.13;;;2.67;;
6821;SDS011;3449;48.728;8.968;2024-02-21T04:51:29;10.27;;;2.53;;
6821;SDS011;3449;48.728;8.968;2024-02-21T04:53:56;5.43;;;2.10;;
6821;SDS011;3449;48.728;8.968;2024-02-21T04:56:23;6.70;;;2.20;;
6821;SDS011;3449;48.728;8.968;2024-02-21T04:58:51;4.30;;;2.23;;
6821;SDS011;3449;48.728;8.968;2024-02-21T05:01:18;4.80;;;2.20;;
6821;SDS011;3449;48.728;8.968;2024-02-21T05:03:45;2.53;;;2.17;;
6821;SDS011;3449;48.728;8.968;2024-02-21T05:06:12;8.27;;;2.47;;
6821;SDS011;3449;48.728;8.968;2024-02-21T05:08:39;8.93;;;2.60;;
6821;SDS011;3449;48.728;8.968;2024-02-21T05:11:06;6.30;;;2.40;;
6821;SDS011;3449;48.728;8.968;2024-02-21T05:13:33;4.30;;;2.50;;
6821;SDS011;3449;48.728;8.968;2024-02-21T05:16:01;4.50;;;1.90;;
6821;SDS011;3449;48.728;8.968;2024-02-21T05:18:28;4.60;;;2.90;;
6821;SDS011;3449;48.728;8.968;2024-02-21T05:20:55;12.23;;;3.00;;
6821;SDS011;3449;48.728;8.968;2024-02-21T05:23:22;7.30;;;2.70;;
6821;SDS011;3449;48.728;8.968;2024-02-21T05:25:49;4.20;;;2.10;;
6821;SDS011;3449;48.728;8.968;2024-02-21T05:28:16;4.23;;;2.33;;
6821;SDS011;3449;48.728;8.968;2024-02-21T05:30:42;8.27;;;2.53;;
6821;SDS011;3449;48.728;8.968;2024-02-21T05:33:11;9.13;;;2.40;;
6821;SDS011;3449;48.728;8.968;2024-02-21T05:35:37;3.23;;;2.03;;
6821;SDS011;3449;48.728;8.968;2024-02-21T05:38:04;3.07;;;2.10;;
6821;SDS011;3449;48.728;8.968;2024-02-21T05:40:36;11.73;;;3.27;;
6821;SDS011;3449;48.728;8.968;2024-02-21T05:43:03;9.70;;;2.33;;
6821;SDS011;3449;48.728;8.968;2024-02-21T05:45:30;8.00;;;2.77;;
6821;SDS011;3449;48.728;8.968;2024-02-21T05:47:57;6.27;;;2.37;;
6821;SDS011;3449;48.728;8.968;2024-02-21T05:50:26;4.43;;;2.43;;
6821;SDS011;3449;48.728;8.968;2024-02-21T05:52:53;9.67;;;2.70;;
6821;SDS011;3449;48.728;8.968;2024-02-21T05:55:20;5.50;;;2.73;;
6821;SDS011;3449;48.728;8.968;2024-02-21T05:57:47;2.50;;;1.93;;
6821;SDS011;3449;48.728;8.968;2024-02-21T06:00:15;7.93;;;2.70;;
6821;SDS011;3449;48.728;8.968;2024-02-21T06:02:42;5.70;;;2.50;;
6821;SDS011;3449;48.728;8.968;2024-02-21T06:05:09;9.07;;;3.90;;
6821;SDS011;3449;48.728;8.968;2024-02-21T06:07:38;7.07;;;2.60;;
6821;SDS011;3449;48.728;8.968;2024-02-21T06:10:06;8.10;;;2.83;;
6821;SDS011;3449;48.728;8.968;2024-02-21T06:12:33;3.40;;;2.30;;
6821;SDS011;3449;48.728;8.968;2024-02-21T06:15:00;4.67;;;2.37;;
6821;SDS011;3449;48.728;8.968;2024-02-21T06:17:27;12.03;;;2.80;;
6821;SDS011;3449;48.728;8.968;2024-02-21T06:19:54;10.23;;;3.13;;
6821;SDS011;3449;48.728;8.968;2024-02-21T06:22:21;14.87;;;3.33;;
6821;SDS011;3449;48.728;8.968;2024-02-21T06:24:49;5.43;;;2.40;;
6821;SDS011;3449;48.728;8.968;2024-02-21T06:27:15;8.03;;;2.77;;
6821;SDS011;3449;48.728;8.968;2024-02-21T06:29:42;8.47;;;2.77;;
6821;SDS011;3449;48.728;8.968;2024-02-21T06:32:09;5.23;;;2.20;;
6821;SDS011;3449;48.728;8.968;2024-02-21T06:34:36;11.37;;;4.87;;
6821;SDS011;3449;48.728;8.968;2024-02-21T06:37:03;13.43;;;6.67;;
6821;SDS011;3449;48.728;8.968;2024-02-21T06:39:29;10.73;;;5.30;;
6821;SDS011;3449;48.728;8.968;2024-02-21T06:41:58;12.20;;;3.50;;
6821;SDS011;3449;48.728;8.968;2024-02-21T06:44:25;10.37;;;2.70;;
6821;SDS011;3449;48.728;8.968;2024-02-21T06:46:53;4.93;;;2.47;;
6821;SDS011;3449;48.728;8.968;2024-02-21T06:49:20;10.27;;;3.40;;
6821;SDS011;3449;48.728;8.968;2024-02-21T06:51:47;7.03;;;3.70;;
6821;SDS011;3449;48.728;8.968;2024-02-21T06:54:14;8.93;;;4.33;;
6821;SDS011;3449;48.728;8.968;2024-02-21T06:56:40;19.57;;;3.50;;
6821;SDS011;3449;48.728;8.968;2024-02-21T06:59:09;16.97;;;3.40;;
6821;SDS011;3449;48.728;8.968;2024-02-21T07:01:36;5.43;;;2.87;;
6821;SDS011;3449;48.728;8.968;2024-02-21T07:04:03;7.93;;;2.60;;
6821;SDS011;3449;48.728;8.968;2024-02-21T07:06:30;7.67;;;2.80;;
6821;SDS011;3449;48.728;8.968;2024-02-21T07:08:57;7.63;;;2.43;;
6821;SDS011;3449;48.728;8.968;2024-02-21T07:11:23;17.80;;;3.00;;
6821;SDS011;3449;48.728;8.968;2024-02-21T07:13:52;4.30;;;2.57;;
6821;SDS011;3449;48.728;8.968;2024-02-21T07:16:20;4.00;;;2.63;;
6821;SDS011;3449;48.728;8.968;2024-02-21T07:18:47;6.63;;;2.03;;
6821;SDS011;3449;48.728;8.968;2024-02-21T07:21:14;13.40;;;3.07;;
6821;SDS011;3449;48.728;8.968;2024-02-21T07:23:41;6.20;;;2.40;;
6821;SDS011;3449;48.728;8.968;2024-02-21T07:26:08;5.10;;;2.73;;
6821;SDS011;3449;48.728;8.968;2024-02-21T07:28:35;17.07;;;3.10;;
6821;SDS011;3449;48.728;8.968;2024-02-21T07:31:02;3.83;;;2.67;;
6821;SDS011;3449;48.728;8.968;2024-02-21T07:33:31;6.03;;;2.53;;
6821;SDS011;3449;48.728;8.968;2024-02-21T07:35:57;4.70;;;2.70;;
6821;SDS011;3449;48.728;8.968;2024-02-21T07:38:24;3.63;;;2.30;;
6821;SDS011;3449;48.728;8.968;2024-02-21T07:40:51;4.40;;;2.30;;
6821;SDS011;3449;48.728;8.968;2024-02-21T07:43:18;9.83;;;3.13;;
6821;SDS011;3449;48.728;8.968;2024-02-21T07:45:47;4.13;;;2.10;;
6821;SDS011;3449;48.728;8.968;2024-02-21T07:48:14;6.50;;;3.00;;
6821;SDS011;3449;48.728;8.968;2024-02-21T07:50:42;7.60;;;3.07;;
6821;SDS011;3449;48.728;8.968;2024-02-21T07:53:09;14.87;;;3.63;;
6821;SDS011;3449;48.728;8.968;2024-02-21T07:55:36;4.30;;;1.80;;
6821;SDS011;3449;48.728;8.968;2024-02-21T07:58:03;4.10;;;2.60;;
6821;SDS011;3449;48.728;8.968;2024-02-21T08:00:29;3.67;;;2.00;;
6821;SDS011;3449;48.728;8.968;2024-02-21T08:02:56;13.90;;;2.20;;
6821;SDS011;3449;48.728;8.968;2024-02-21T08:05:23;6.50;;;2.70;;
6821;SDS011;3449;48.728;8.968;2024-02-21T08:07:51;4.27;;;2.23;;
6821;SDS011;3449;48.728;8.968;2024-02-21T08:10:18;6.27;;;1.93;;
6821;SDS011;3449;48.728;8.968;2024-02-21T08:12:45;2.70;;;1.70;;
6821;SDS011;3449;48.728;8.968;2024-02-21T08:15:12;5.30;;;1.77;;
6821;SDS011;3449;48.728;8.968;2024-02-21T08:17:39;15.47;;;2.43;;
6821;SDS011;3449;48.728;8.968;2024-02-21T08:20:06;5.03;;;1.80;;
6821;SDS011;3449;48.728;8.968;2024-02-21T08:22:33;6.00;;;2.00;;
6821;SDS011;3449;48.728;8.968;2024-02-21T08:25:05;6.43;;;1.97;;
6821;SDS011;3449;48.728;8.968;2024-02-21T08:27:32;4.50;;;2.10;;
6821;SDS011;3449;48.728;8.968;2024-02-21T08:29:59;9.27;;;2.10;;
6821;SDS011;3449;48.728;8.968;2024-02-21T08:32:26;8.53;;;1.93;;
6821;SDS011;3449;48.728;8.968;2024-02-21T08:34:54;7.53;;;1.40;;
6821;SDS011;3449;48.728;8.968;2024-02-21T08:37:22;7.53;;;2.10;;
6821;SDS011;3449;48.728;8.968;2024-02-21T08:39:48;3.20;;;1.87;;
6821;SDS011;3449;48.728;8.968;2024-02-21T08:42:17;4.47;;;2.10;;
6821;SDS011;3449;48.728;8.968;2024-02-21T08:44:44;15.27;;;2.40;;
6821;SDS011;3449;48.728;8.968;2024-02-21T08:47:11;9.50;;;2.50;;
6821;SDS011;3449;48.728;8.968;2024-02-21T08:49:38;8.50;;;1.60;;
6821;SDS011;3449;48.728;8.968;2024-02-21T08:52:05;4.13;;;2.50;;
6821;SDS011;3449;48.728;8.968;2024-02-21T08:54:32;2.60;;;2.40;;
6821;SDS011;3449;48.728;8.968;2024-02-21T08:56:59;5.67;;;2.47;;
6821;SDS011;3449;48.728;8.968;2024-02-21T08:59:27;7.23;;;2.57;;
6821;SDS011;3449;48.728;8.968;2024-02-21T09:01:54;6.33;;;1.80;;
6821;SDS011;3449;48.728;8.968;2024-02-21T09:04:20;6.60;;;1.93;;
6821;SDS011;3449;48.728;8.968;2024-02-21T09:06:47;13.60;;;2.70;;
6821;SDS011;3449;48.728;8.968;2024-02-21T09:09:14;8.20;;;2.30;;
6821;SDS011;3449;48.728;8.968;2024-02-21T09:11:41;7.70;;;2.67;;
6821;SDS011;3449;48.728;8.968;2024-02-21T09:14:08;5.47;;;2.17;;
6821;SDS011;3449;48.728;8.968;2024-02-21T09:16:36;7.27;;;1.70;;
6821;SDS011;3449;48.728;8.968;2024-02-21T09:19:03;8.00;;;2.63;;
6821;SDS011;3449;48.728;8.968;2024-02-21T09:21:30;4.20;;;2.00;;
6821;SDS011;3449;48.728;8.968;2024-02-21T09:23:57;2.60;;;1.80;;
6821;SDS011;3449;48.728;8.968;2024-02-21T09:26:23;6.63;;;2.10;;
6821;SDS011;3449;48.728;8.968;2024-02-21T09:28:50;6.83;;;2.03;;
6821;SDS011;3449;48.728;8.968;2024-02-21T09:31:17;8.00;;;2.20;;
6821;SDS011;3449;48.728;8.968;2024-02-21T09:33:46;9.67;;;2.30;;
6821;SDS011;3449;48.728;8.968;2024-02-21T09:36:12;5.40;;;1.93;;
6821;SDS011;3449;48.728;8.968;2024-02-21T09:38:40;7.30;;;2.33;;
6821;SDS011;3449;48.728;8.968;2024-02-21T09:41:11;17.43;;;2.83;;
6821;SDS011;3449;48.728;8.968;2024-02-21T09:43:43;2.97;;;2.10;;
6821;SDS011;3449;48.728;8.968;2024-02-21T09:46:12;3.03;;;2.30;;
6821;SDS011;3449;48.728;8.968;2024-02-21T09:48:52;5.20;;;2.33;;
6821;SDS011;3449;48.728;8.968;2024-02-21T09:51:30;1.63;;;1.50;;
6821;SDS011;3449;48.728;8.968;2024-02-21T09:53:58;6.03;;;1.67;;
6821;SDS011;3449;48.728;8.968;2024-02-21T09:56:28;3.73;;;1.90;;
6821;SDS011;3449;48.728;8.968;2024-02-21T09:58:55;4.90;;;1.50;;
6821;SDS011;3449;48.728;8.968;2024-02-21T10:01:23;3.23;;;1.90;;
6821;SDS011;3449;48.728;8.968;2024-02-21T10:03:51;4.30;;;1.20;;
6821;SDS011;3449;48.728;8.968;2024-02-21T10:06:18;3.80;;;1.77;;
6821;SDS011;3449;48.728;8.968;2024-02-21T10:08:51;2.23;;;1.57;;
6821;SDS011;3449;48.728;8.968;2024-02-21T10:11:21;8.93;;;1.97;;
6821;SDS011;3449;48.728;8.968;2024-02-21T10:13:49;9.00;;;1.90;;
6821;SDS011;3449;48.728;8.968;2024-02-21T10:16:16;9.53;;;1.80;;
6821;SDS011;3449;48.728;8.968;2024-02-21T10:18:43;2.60;;;1.70;;
6821;SDS011;3449;48.728;8.968;2024-02-21T10:21:11;2.83;;;1.60;;
6821;SDS011;3449;48.728;8.968;2024-02-21T10:23:41;4.97;;;1.60;;
6821;SDS011;3449;48.728;8.968;2024-02-21T10:26:09;6.43;;;1.90;;
6821;SDS011;3449;48.728;8.968;2024-02-21T10:28:42;5.20;;;2.00;;
6821;SDS011;3449;48.728;8.968;2024-02-21T10:31:10;5.90;;;1.93;;
6821;SDS011;3449;48.728;8.968;2024-02-21T10:33:37;3.37;;;1.67;;
6821;SDS011;3449;48.728;8.968;2024-02-21T10:36:08;11.60;;;2.70;;
6821;SDS011;3449;48.728;8.968;2024-02-21T10:38:37;5.13;;;1.50;;
6821;SDS011;3449;48.728;8.968;2024-02-21T10:41:04;4.27;;;2.00;;
6821;SDS011;3449;48.728;8.968;2024-02-21T10:43:33;7.30;;;2.40;;
6821;SDS011;3449;48.728;8.968;2024-02-21T10:46:06;3.33;;;1.90;;
6821;SDS011;3449;48.728;8.968;2024-02-21T10:48:37;3.23;;;1.50;;
6821;SDS011;3449;48.728;8.968;2024-02-21T10:51:11;7.03;;;1.73;;
6821;SDS011;3449;48.728;8.968;2024-02-21T10:53:47;5.20;;;1.80;;
6821;SDS011;3449;48.728;8.968;2024-02-21T10:56:26;6.33;;;2.10;;
6821;SDS011;3449;48.728;8.968;2024-02-21T10:58:55;3.40;;;1.50;;
6821;SDS011;3449;48.728;8.968;2024-02-21T11:01:23;4.03;;;1.20;;
6821;SDS011;3449;48.728;8.968;2024-02-21T11:03:52;5.30;;;1.87;;
6821;SDS011;3449;48.728;8.968;2024-02-21T11:06:21;4.53;;;1.60;;
6821;SDS011;3449;48.728;8.968;2024-02-21T11:09:00;5.43;;;1.60;;
6821;SDS011;3449;48.728;8.968;2024-02-21T11:11:28;7.67;;;1.47;;
6821;SDS011;3449;48.728;8.968;2024-02-21T11:14:03;3.60;;;1.67;;
6821;SDS011;3449;48.728;8.968;2024-02-21T11:16:34;2.60;;;1.20;;
6821;SDS011;3449;48.728;8.968;2024-02-21T11:19:06;5.73;;;1.27;;
6821;SDS011;3449;48.728;8.968;2024-02-21T11:21:33;6.30;;;1.47;;
6821;SDS011;3449;48.728;8.968;2024-02-21T11:24:02;7.53;;;1.20;;
6821;SDS011;3449;48.728;8.968;2024-02-21T11:26:30;5.33;;;1.57;;
6821;SDS011;3449;48.728;8.968;2024-02-21T11:28:57;2.93;;;1.37;;
6821;SDS011;3449;48.728;8.968;2024-02-21T11:31:25;3.30;;;1.30;;
6821;SDS011;3449;48.728;8.968;2024-02-21T11:33:53;2.40;;;1.40;;
6821;SDS011;3449;48.728;8.968;2024-02-21T11:36:24;5.40;;;1.20;;
6821;SDS011;3449;48.728;8.968;2024-02-21T11:38:51;4.93;;;1.33;;
6821;SDS011;3449;48.728;8.968;2024-02-21T11:41:20;1.90;;;1.33;;
6821;SDS011;3449;48.728;8.968;2024-02-21T11:43:48;4.53;;;1.20;;
6821;SDS011;3449;48.728;8.968;2024-02-21T11:46:16;3.63;;;1.13;;
6821;SDS011;3449;48.728;8.968;2024-02-21T11:48:43;2.17;;;1.77;;
6821;SDS011;3449;48.728;8.968;2024-02-21T11:51:20;5.13;;;1.40;;
6821;SDS011;3449;48.728;8.968;2024-02-21T11:53:48;4.20;;;1.43;;
6821;SDS011;3449;48.728;8.968;2024-02-21T11:56:15;1.27;;;1.17;;
6821;SDS011;3449;48.728;8.968;2024-02-21T11:58:43;3.03;;;1.27;;
6821;SDS011;3449;48.728;8.968;2024-02-21T12:01:10;2.33;;;1.40;;
6821;SDS011;3449;48.728;8.968;2024-02-21T12:03:36;4.27;;;1.87;;
6821;SDS011;3449;48.728;8.968;2024-02-21T12:06:06;1.80;;;1.37;;
6821;SDS011;3449;48.728;8.968;2024-02-21T12:08:40;8.90;;;2.27;;
6821;SDS011;3449;48.728;8.968;2024-02-21T12:11:15;6.00;;;1.70;;
6821;SDS011;3449;48.728;8.968;2024-02-21T12:13:47;5.70;;;1.33;;
6821;SDS011;3449;48.728;8.968;2024-02-21T12:16:24;3.20;;;1.40;;
6821;SDS011;3449;48.728;8.968;2024-02-21T12:18:52;6.90;;;1.30;;
6821;SDS011;3449;48.728;8.968;2024-02-21T12:21:19;2.53;;;1.27;;
6821;SDS011;3449;48.728;8.968;2024-02-21T12:23:49;2.27;;;1.40;;
6821;SDS011;3449;48.728;8.968;2024-02-21T12:26:16;4.50;;;1.10;;
6821;SDS011;3449;48.728;8.968;2024-02-21T12:28:42;1.83;;;0.90;;
6821;SDS011;3449;48.728;8.968;2024-02-21T12:31:11;3.37;;;1.40;;
6821;SDS011;3449;48.728;8.968;2024-02-21T12:33:38;1.40;;;1.10;;
6821;SDS011;3449;48.728;8.968;2024-02-21T12:36:05;7.30;;;1.50;;
6821;SDS011;3449;48.728;8.968;2024-02-21T12:38:33;3.70;;;1.27;;
6821;SDS011;3449;48.728;8.968;2024-02-21T12:41:00;6.27;;;1.30;;
6821;SDS011;3449;48.728;8.968;2024-02-21T12:43:28;3.40;;;1.33;;
6821;SDS011;3449;48.728;8.968;2024-02-21T12:45:55;2.63;;;1.23;;
6821;SDS011;3449;48.728;8.968;2024-02-21T12:48:23;1.10;;;1.00;;
6821;SDS011;3449;48.728;8.968;2024-02-21T12:50:50;1.60;;;1.40;;
6821;SDS011;3449;48.728;8.968;2024-02-21T12:53:17;2.20;;;1.00;;
6821;SDS011;3449;48.728;8.968;2024-02-21T12:55:46;1.60;;;0.97;;
6821;SDS011;3449;48.728;8.968;2024-02-21T12:58:13;2.40;;;1.80;;
6821;SDS011;3449;48.728;8.968;2024-02-21T13:00:40;2.93;;;1.83;;
6821;SDS011;3449;48.728;8.968;2024-02-21T13:03:08;2.50;;;1.50;;
6821;SDS011;3449;48.728;8.968;2024-02-21T13:05:37;0.80;;;0.80;;
6821;SDS011;3449;48.728;8.968;2024-02-21T13:08:04;4.87;;;1.37;;
6821;SDS011;3449;48.728;8.968;2024-02-21T13:10:31;3.87;;;1.43;;
6821;SDS011;3449;48.728;8.968;2024-02-21T13:12:59;1.97;;;1.03;;
6821;SDS011;3449;48.728;8.968;2024-02-21T13:15:26;2.03;;;1.20;;
6821;SDS011;3449;48.728;8.968;2024-02-21T13:17:54;1.67;;;0.83;;
6821;SDS011;3449;48.728;8.968;2024-02-21T13:20:21;3.33;;;1.43;;
6821;SDS011;3449;48.728;8.968;2024-02-21T13:22:50;2.30;;;1.37;;
6821;SDS011;3449;48.728;8.968;2024-02-21T13:25:16;2.80;;;1.20;;
6821;SDS011;3449;48.728;8.968;2024-02-21T13:27:46;2.90;;;1.40;;
6821;SDS011;3449;48.728;8.968;2024-02-21T13:30:13;4.77;;;1.90;;
6821;SDS011;3449;48.728;8.968;2024-02-21T13:32:41;1.40;;;1.00;;
6821;SDS011;3449;48.728;8.968;2024-02-21T13:35:08;1.80;;;1.03;;
6821;SDS011;3449;48.728;8.968;2024-02-21T13:37:36;1.47;;;0.93;;
6821;SDS011;3449;48.728;8.968;2024-02-21T13:40:05;2.33;;;1.17;;
6821;SDS011;3449;48.728;8.968;2024-02-21T13:42:35;3.10;;;1.57;;
6821;SDS011;3449;48.728;8.968;2024-02-21T13:45:02;4.97;;;1.30;;
6821;SDS011;3449;48.728;8.968;2024-02-21T13:47:30;4.83;;;1.00;;
6821;SDS011;3449;48.728;8.968;2024-02-21T13:49:57;1.73;;;0.77;;
6821;SDS011;3449;48.728;8.968;2024-02-21T13:52:24;3.60;;;0.90;;
6821;SDS011;3449;48.728;8.968;2024-02-21T13:54:51;2.63;;;0.80;;
6821;SDS011;3449;48.728;8.968;2024-02-21T13:57:19;2.70;;;1.10;;
6821;SDS011;3449;48.728;8.968;2024-02-21T13:59:46;0.93;;;0.83;;
6821;SDS011;3449;48.728;8.968;2024-02-21T14:02:13;7.20;;;2.50;;
6821;SDS011;3449;48.728;8.968;2024-02-21T14:04:40;2.90;;;0.87;;
6821;SDS011;3449;48.728;8.968;2024-02-21T14:07:07;0.77;;;0.77;;
6821;SDS011;3449;48.728;8.968;2024-02-21T14:09:34;5.10;;;1.40;;
6821;SDS011;3449;48.728;8.968;2024-02-21T14:12:01;2.50;;;0.80;;
6821;SDS011;3449;48.728;8.968;2024-02-21T14:14:29;1.43;;;0.83;;
6821;SDS011;3449;48.728;8.968;2024-02-21T14:16:56;10.03;;;1.10;;
6821;SDS011;3449;48.728;8.968;2024-02-21T14:19:23;2.17;;;1.00;;
6821;SDS011;3449;48.728;8.968;2024-02-21T14:21:50;1.60;;;0.93;;
6821;SDS011;3449;48.728;8.968;2024-02-21T14:24:17;3.73;;;0.60;;
6821;SDS011;3449;48.728;8.968;2024-02-21T14:26:44;2.30;;;1.03;;
6821;SDS011;3449;48.728;8.968;2024-02-21T14:29:11;2.50;;;1.07;;
6821;SDS011;3449;48.728;8.968;2024-02-21T14:31:40;3.73;;;1.13;;
6821;SDS011;3449;48.728;8.968;2024-02-21T14:34:07;2.60;;;0.70;;
6821;SDS011;3449;48.728;8.968;2024-02-21T14:36:34;1.50;;;0.90;;
6821;SDS011;3449;48.728;8.968;2024-02-21T14:39:01;3.40;;;1.00;;
6821;SDS011;3449;48.728;8.968;2024-02-21T14:41:29;0.90;;;0.70;;
6821;SDS011;3449;48.728;8.968;2024-02-21T14:43:56;4.47;;;1.00;;
6821;SDS011;3449;48.728;8.968;2024-02-21T14:46:25;1.47;;;0.80;;
6821;SDS011;3449;48.728;8.968;2024-02-21T14:48:54;1.07;;;0.60;;
6821;SDS011;3449;48.728;8.968;2024-02-21T14:51:21;0.97;;;0.83;;
6821;SDS011;3449;48.728;8.968;2024-02-21T14:53:48;1.80;;;0.80;;
6821;SDS011;3449;48.728;8.968;2024-02-21T14:56:15;1.73;;;0.90;;
6821;SDS011;3449;48.728;8.968;2024-02-21T14:58:42;2.43;;;0.77;;
6821;SDS011;3449;48.728;8.968;2024-02-21T15:01:09;1.37;;;0.80;;
6821;SDS011;3449;48.728;8.968;2024-02-21T15:03:38;6.57;;;1.37;;
6821;SDS011;3449;48.728;8.968;2024-02-21T15:06:06;0.90;;;0.70;;
6821;SDS011;3449;48.728;8.968;2024-02-21T15:08:33;1.07;;;0.97;;
6821;SDS011;3449;48.728;8.968;2024-02-21T15:11:01;5.80;;;1.10;;
6821;SDS011;3449;48.728;8.968;2024-02-21T15:13:28;0.67;;;0.67;;
6821;SDS011;3449;48.728;8.968;2024-02-21T15:15:55;6.20;;;1.23;;